Terminal Aerodrome Forecast
Issued by NWS Jacksonville, FL

Home | Current Version | Previous Version | Text Only | Print | Product List | Glossary On
Versions: 1 2 3 4 5 6 7 8 9 10 11 12 13 14 15 16 17 18 19 20 21 22
000
FTUS42 KJAX 251735
TAFGNV
TAF
KGNV 251735Z 2518/2618 12008KT P6SM VCTS SCT025CB BKN040
      TEMPO 2521/2524 VRB12G22KT 3SM TSRA OVC025CB
     FM260300 13003KT P6SM SCT030 OVC060
     FM261000 VRB02KT P6SM SCT035 BKN250
     FM261400 11006KT P6SM BKN040 OVC250=

USA.gov is the U.S. government's official web portal to all federal, state and local government web resources and services.